Croydon, UT (84018)

2:12 PM MST on November 23, 2014 (GMT -0700)
APRSWXNET Morgan 1426 UT US | Change Station
CLOSE
Current Station
Personal Weather Station
Location: Morgan, UT
Elevation: 5104 ft
Nearby Weather Stations
Active Advisory: Winter Weather Advisory Active Notice: Public Information Statement

Elev 5104 ft 41.05 °N, 111.67 °W | Updated 26 minutes ago

Mostly Cloudy
Mostly Cloudy
34 °F
Feels Like 25 °F
N
12
Wind Variable Wind from WNW
Gusts 25.0 mph

Today
High -- | Low -- °F
--% Chance of Precip.
Yesterday
High -- | Low -- °F
Precip. -- in
7:23 AM 5:01 PM
New Moon, 2% visible
Pressure 30.25 in
Visibility 10.0 miles
Clouds Scattered Clouds 3700 ft
Mostly Cloudy 4800 ft
Windchill 25 °F
Dew Point 20 °F
Humidity 57%
Rainfall 0.05 in
Snow Depth Not available.
UV 1 out of 12
Pollen .10 out of 12
Air Quality Not available.
Flu Activity Not available.
METAR KHIF 232058Z VRB04KT 10SM SCT037 BKN048 03/M06 A3022 RMK AO2A SLP242 T00251059 58001

More Conditions Fewer Conditions

Pressure 30.25 in
Visibility 10.0 miles
Clouds Scattered Clouds 3700 ft
Mostly Cloudy 4800 ft
Windchill 25 °F
Dew Point 20 °F
Humidity 57%
Rainfall 0.05 in
Snow Depth Not available.
UV 1 out of 12
Pollen .10 out of 12
Air Quality Not available.
Flu Activity Not available.
METAR KHIF 232058Z VRB04KT 10SM SCT037 BKN048 03/M06 A3022 RMK AO2A SLP242 T00251059 58001

More Conditions Fewer Conditions

10-Day Weather Forecast

Almanac

Astronomy

Nov. 23, 2014 Rise Set
Actual Time
Civil Twilight
Nautical Twilight
Astronomical Twilight
Moon
Length of Visible Light
Length of Day
Tomorrow will be .
, % of the Moon is Illuminated

Today's Extremes

State Highs State Lows

Community

WunderPhotos

Upload Photos

1,773,176 photos uploaded!

WunderBlogs® & News

Nearby

Air Quality

  Air Quality AQ Index Pollutant
Not available.

Snow Depth

Station Depth Elevation

Earthquake Activity

City Distance Mag. Time & Date
Minimum magnitude displayed is 2.5.

Coastal Water Temperatures

Place Temperature

Nearby Weather Stations